sensor_id;sensor_type;location;lat;lon;timestamp;P1;durP1;ratioP1;P2;durP2;ratioP2
31182;SDS011;17813;0.000;0.000;2023-07-29T00:00:21;1.73;;;1.63;;
31182;SDS011;17813;0.000;0.000;2023-07-29T00:02:48;3.33;;;1.60;;
31182;SDS011;17813;0.000;0.000;2023-07-29T00:05:15;1.17;;;1.13;;
31182;SDS011;17813;0.000;0.000;2023-07-29T00:07:44;1.50;;;1.40;;
31182;SDS011;17813;0.000;0.000;2023-07-29T00:10:11;1.45;;;1.35;;
31182;SDS011;17813;0.000;0.000;2023-07-29T00:12:38;1.30;;;1.20;;
31182;SDS011;17813;0.000;0.000;2023-07-29T00:15:06;1.40;;;1.30;;
31182;SDS011;17813;0.000;0.000;2023-07-29T00:17:36;1.47;;;1.37;;
31182;SDS011;17813;0.000;0.000;2023-07-29T00:20:04;1.20;;;1.10;;
31182;SDS011;17813;0.000;0.000;2023-07-29T00:22:32;1.40;;;1.30;;
31182;SDS011;17813;0.000;0.000;2023-07-29T00:25:01;1.03;;;1.03;;
31182;SDS011;17813;0.000;0.000;2023-07-29T00:27:30;1.23;;;1.20;;
31182;SDS011;17813;0.000;0.000;2023-07-29T00:29:59;1.20;;;1.20;;
31182;SDS011;17813;0.000;0.000;2023-07-29T00:32:28;1.17;;;1.10;;
31182;SDS011;17813;0.000;0.000;2023-07-29T00:34:56;1.20;;;1.20;;
31182;SDS011;17813;0.000;0.000;2023-07-29T00:37:30;1.17;;;1.17;;
31182;SDS011;17813;0.000;0.000;2023-07-29T00:39:57;1.13;;;1.07;;
31182;SDS011;17813;0.000;0.000;2023-07-29T00:42:35;1.17;;;1.17;;
31182;SDS011;17813;0.000;0.000;2023-07-29T00:45:03;1.23;;;1.13;;
31182;SDS011;17813;0.000;0.000;2023-07-29T00:47:33;1.40;;;1.30;;
31182;SDS011;17813;0.000;0.000;2023-07-29T00:50:02;1.30;;;1.13;;
31182;SDS011;17813;0.000;0.000;2023-07-29T00:52:31;1.20;;;1.20;;
31182;SDS011;17813;0.000;0.000;2023-07-29T00:54:58;1.17;;;1.17;;
31182;SDS011;17813;0.000;0.000;2023-07-29T00:57:27;1.30;;;1.20;;
31182;SDS011;17813;0.000;0.000;2023-07-29T00:59:57;1.30;;;1.20;;
31182;SDS011;17813;0.000;0.000;2023-07-29T01:02:26;1.30;;;1.20;;
31182;SDS011;17813;0.000;0.000;2023-07-29T01:04:56;1.10;;;1.10;;
31182;SDS011;17813;0.000;0.000;2023-07-29T01:07:30;1.20;;;1.10;;
31182;SDS011;17813;0.000;0.000;2023-07-29T01:10:07;0.97;;;0.97;;
31182;SDS011;17813;0.000;0.000;2023-07-29T01:18:35;1.33;;;0.87;;
31182;SDS011;17813;0.000;0.000;2023-07-29T01:21:07;0.90;;;0.90;;
31182;SDS011;17813;0.000;0.000;2023-07-29T01:23:35;1.00;;;1.00;;
31182;SDS011;17813;0.000;0.000;2023-07-29T01:26:07;0.80;;;0.80;;
31182;SDS011;17813;0.000;0.000;2023-07-29T01:28:39;1.13;;;0.87;;
31182;SDS011;17813;0.000;0.000;2023-07-29T01:31:43;0.80;;;0.80;;
31182;SDS011;17813;0.000;0.000;2023-07-29T01:34:09;0.90;;;0.90;;
31182;SDS011;17813;0.000;0.000;2023-07-29T01:36:48;0.97;;;0.87;;
31182;SDS011;17813;0.000;0.000;2023-07-29T01:39:23;1.05;;;1.02;;
31182;SDS011;17813;0.000;0.000;2023-07-29T01:41:56;0.80;;;0.80;;
31182;SDS011;17813;0.000;0.000;2023-07-29T01:44:23;0.90;;;0.90;;
31182;SDS011;17813;0.000;0.000;2023-07-29T01:46:51;0.90;;;0.90;;
31182;SDS011;17813;0.000;0.000;2023-07-29T01:49:18;0.87;;;0.87;;
31182;SDS011;17813;0.000;0.000;2023-07-29T01:51:45;0.90;;;0.90;;
31182;SDS011;17813;0.000;0.000;2023-07-29T01:54:12;1.07;;;0.90;;
31182;SDS011;17813;0.000;0.000;2023-07-29T01:56:39;1.00;;;1.00;;
31182;SDS011;17813;0.000;0.000;2023-07-29T01:59:07;1.10;;;1.10;;
31182;SDS011;17813;0.000;0.000;2023-07-29T02:01:34;1.20;;;1.10;;
31182;SDS011;17813;0.000;0.000;2023-07-29T02:04:00;1.10;;;1.00;;
31182;SDS011;17813;0.000;0.000;2023-07-29T02:06:31;1.10;;;1.00;;
31182;SDS011;17813;0.000;0.000;2023-07-29T02:08:58;1.00;;;1.00;;
31182;SDS011;17813;0.000;0.000;2023-07-29T02:11:30;1.00;;;1.00;;
31182;SDS011;17813;0.000;0.000;2023-07-29T02:13:58;1.30;;;1.20;;
31182;SDS011;17813;0.000;0.000;2023-07-29T02:16:27;1.23;;;1.13;;
31182;SDS011;17813;0.000;0.000;2023-07-29T02:18:55;1.10;;;1.10;;
31182;SDS011;17813;0.000;0.000;2023-07-29T02:21:21;1.00;;;1.00;;
31182;SDS011;17813;0.000;0.000;2023-07-29T02:23:49;1.10;;;1.10;;
31182;SDS011;17813;0.000;0.000;2023-07-29T02:26:17;1.00;;;1.00;;
31182;SDS011;17813;0.000;0.000;2023-07-29T02:28:43;1.00;;;1.00;;
31182;SDS011;17813;0.000;0.000;2023-07-29T02:33:47;1.10;;;1.10;;
31182;SDS011;17813;0.000;0.000;2023-07-29T02:36:15;2.27;;;1.20;;
31182;SDS011;17813;0.000;0.000;2023-07-29T02:38:44;1.17;;;1.07;;
31182;SDS011;17813;0.000;0.000;2023-07-29T02:41:14;1.10;;;1.10;;
31182;SDS011;17813;0.000;0.000;2023-07-29T02:43:42;1.37;;;1.27;;
31182;SDS011;17813;0.000;0.000;2023-07-29T02:46:14;1.30;;;1.20;;
31182;SDS011;17813;0.000;0.000;2023-07-29T02:48:44;1.30;;;1.20;;
31182;SDS011;17813;0.000;0.000;2023-07-29T02:51:11;1.20;;;1.20;;
31182;SDS011;17813;0.000;0.000;2023-07-29T02:53:43;1.27;;;1.20;;
31182;SDS011;17813;0.000;0.000;2023-07-29T02:56:09;1.20;;;1.20;;
31182;SDS011;17813;0.000;0.000;2023-07-29T02:58:37;1.50;;;1.40;;
31182;SDS011;17813;0.000;0.000;2023-07-29T03:01:06;1.50;;;1.40;;
31182;SDS011;17813;0.000;0.000;2023-07-29T03:03:37;1.70;;;1.60;;
31182;SDS011;17813;0.000;0.000;2023-07-29T03:06:07;2.37;;;1.40;;
31182;SDS011;17813;0.000;0.000;2023-07-29T03:08:35;1.67;;;1.50;;
31182;SDS011;17813;0.000;0.000;2023-07-29T03:11:06;1.53;;;1.43;;
31182;SDS011;17813;0.000;0.000;2023-07-29T03:13:35;1.40;;;1.30;;
31182;SDS011;17813;0.000;0.000;2023-07-29T03:18:42;1.20;;;1.20;;
31182;SDS011;17813;0.000;0.000;2023-07-29T03:21:11;1.77;;;1.37;;
31182;SDS011;17813;0.000;0.000;2023-07-29T03:23:39;1.90;;;1.40;;
31182;SDS011;17813;0.000;0.000;2023-07-29T03:26:08;1.43;;;1.33;;
31182;SDS011;17813;0.000;0.000;2023-07-29T03:28:38;1.37;;;1.37;;
31182;SDS011;17813;0.000;0.000;2023-07-29T03:31:10;1.40;;;1.40;;
31182;SDS011;17813;0.000;0.000;2023-07-29T03:33:37;1.60;;;1.50;;
31182;SDS011;17813;0.000;0.000;2023-07-29T03:36:04;1.77;;;1.40;;
31182;SDS011;17813;0.000;0.000;2023-07-29T03:38:35;1.70;;;1.60;;
31182;SDS011;17813;0.000;0.000;2023-07-29T03:41:08;1.50;;;1.40;;
31182;SDS011;17813;0.000;0.000;2023-07-29T03:43:37;1.67;;;1.57;;
31182;SDS011;17813;0.000;0.000;2023-07-29T03:46:04;1.60;;;1.50;;
31182;SDS011;17813;0.000;0.000;2023-07-29T03:48:34;1.63;;;1.53;;
31182;SDS011;17813;0.000;0.000;2023-07-29T03:51:00;1.70;;;1.60;;
31182;SDS011;17813;0.000;0.000;2023-07-29T03:53:28;1.50;;;1.40;;
31182;SDS011;17813;0.000;0.000;2023-07-29T03:55:57;2.10;;;1.50;;
31182;SDS011;17813;0.000;0.000;2023-07-29T03:58:30;1.70;;;1.60;;
31182;SDS011;17813;0.000;0.000;2023-07-29T04:01:02;1.70;;;1.47;;
31182;SDS011;17813;0.000;0.000;2023-07-29T04:03:33;1.60;;;1.50;;
31182;SDS011;17813;0.000;0.000;2023-07-29T04:06:03;1.50;;;1.40;;
31182;SDS011;17813;0.000;0.000;2023-07-29T04:08:33;1.80;;;1.70;;
31182;SDS011;17813;0.000;0.000;2023-07-29T04:10:59;1.60;;;1.50;;
31182;SDS011;17813;0.000;0.000;2023-07-29T04:13:26;1.60;;;1.50;;
31182;SDS011;17813;0.000;0.000;2023-07-29T04:15:55;2.10;;;1.57;;
31182;SDS011;17813;0.000;0.000;2023-07-29T04:18:29;2.20;;;1.80;;
31182;SDS011;17813;0.000;0.000;2023-07-29T04:21:02;1.57;;;1.47;;
31182;SDS011;17813;0.000;0.000;2023-07-29T04:23:44;1.70;;;1.60;;
31182;SDS011;17813;0.000;0.000;2023-07-29T04:26:11;1.63;;;1.53;;
31182;SDS011;17813;0.000;0.000;2023-07-29T04:28:39;1.67;;;1.57;;
31182;SDS011;17813;0.000;0.000;2023-07-29T04:31:24;2.40;;;1.60;;
31182;SDS011;17813;0.000;0.000;2023-07-29T04:33:56;1.87;;;1.77;;
31182;SDS011;17813;0.000;0.000;2023-07-29T04:36:23;2.17;;;1.70;;
31182;SDS011;17813;0.000;0.000;2023-07-29T04:38:51;1.70;;;1.60;;
31182;SDS011;17813;0.000;0.000;2023-07-29T04:41:19;1.75;;;1.65;;
31182;SDS011;17813;0.000;0.000;2023-07-29T04:43:47;1.67;;;1.50;;
31182;SDS011;17813;0.000;0.000;2023-07-29T04:46:16;1.70;;;1.60;;
31182;SDS011;17813;0.000;0.000;2023-07-29T04:48:44;1.75;;;1.40;;
31182;SDS011;17813;0.000;0.000;2023-07-29T04:51:14;1.63;;;1.52;;
31182;SDS011;17813;0.000;0.000;2023-07-29T04:53:44;1.85;;;1.40;;
31182;SDS011;17813;0.000;0.000;2023-07-29T04:56:11;1.85;;;1.33;;
31182;SDS011;17813;0.000;0.000;2023-07-29T04:58:38;1.65;;;1.30;;
31182;SDS011;17813;0.000;0.000;2023-07-29T05:01:08;2.22;;;1.60;;
31182;SDS011;17813;0.000;0.000;2023-07-29T05:03:36;1.38;;;1.27;;
31182;SDS011;17813;0.000;0.000;2023-07-29T05:06:06;1.30;;;1.20;;
31182;SDS011;17813;0.000;0.000;2023-07-29T05:08:36;1.30;;;1.20;;
31182;SDS011;17813;0.000;0.000;2023-07-29T05:11:06;1.10;;;1.10;;
31182;SDS011;17813;0.000;0.000;2023-07-29T05:13:32;1.40;;;1.30;;
31182;SDS011;17813;0.000;0.000;2023-07-29T05:16:14;1.05;;;1.00;;
31182;SDS011;17813;0.000;0.000;2023-07-29T05:18:42;1.00;;;1.00;;
31182;SDS011;17813;0.000;0.000;2023-07-29T05:21:22;0.95;;;0.95;;
31182;SDS011;17813;0.000;0.000;2023-07-29T05:23:49;1.60;;;1.10;;
31182;SDS011;17813;0.000;0.000;2023-07-29T05:26:16;1.85;;;1.10;;
31182;SDS011;17813;0.000;0.000;2023-07-29T05:28:44;1.30;;;1.10;;
31182;SDS011;17813;0.000;0.000;2023-07-29T05:31:11;1.20;;;1.10;;
31182;SDS011;17813;0.000;0.000;2023-07-29T05:33:41;1.27;;;1.17;;
31182;SDS011;17813;0.000;0.000;2023-07-29T05:36:09;1.20;;;1.10;;
31182;SDS011;17813;0.000;0.000;2023-07-29T05:38:38;1.40;;;1.30;;
31182;SDS011;17813;0.000;0.000;2023-07-29T05:41:08;1.00;;;1.00;;
31182;SDS011;17813;0.000;0.000;2023-07-29T05:43:38;1.20;;;1.10;;
31182;SDS011;17813;0.000;0.000;2023-07-29T05:46:09;1.13;;;1.00;;
31182;SDS011;17813;0.000;0.000;2023-07-29T05:48:40;1.33;;;1.20;;
31182;SDS011;17813;0.000;0.000;2023-07-29T05:51:07;1.58;;;1.20;;
31182;SDS011;17813;0.000;0.000;2023-07-29T05:53:33;1.10;;;1.10;;
31182;SDS011;17813;0.000;0.000;2023-07-29T05:56:05;1.00;;;1.00;;
31182;SDS011;17813;0.000;0.000;2023-07-29T05:58:34;1.30;;;1.20;;
31182;SDS011;17813;0.000;0.000;2023-07-29T06:01:01;1.40;;;1.30;;
31182;SDS011;17813;0.000;0.000;2023-07-29T06:03:31;0.90;;;0.90;;
31182;SDS011;17813;0.000;0.000;2023-07-29T06:06:02;1.42;;;1.25;;
31182;SDS011;17813;0.000;0.000;2023-07-29T06:08:30;1.17;;;1.10;;
31182;SDS011;17813;0.000;0.000;2023-07-29T06:11:00;1.00;;;1.00;;
31182;SDS011;17813;0.000;0.000;2023-07-29T06:13:27;1.25;;;0.90;;
31182;SDS011;17813;0.000;0.000;2023-07-29T06:15:54;0.90;;;0.90;;
31182;SDS011;17813;0.000;0.000;2023-07-29T06:18:23;1.00;;;1.00;;
31182;SDS011;17813;0.000;0.000;2023-07-29T06:20:50;0.98;;;0.98;;
31182;SDS011;17813;0.000;0.000;2023-07-29T06:23:18;1.58;;;1.17;;
31182;SDS011;17813;0.000;0.000;2023-07-29T06:25:46;1.15;;;1.10;;
31182;SDS011;17813;0.000;0.000;2023-07-29T06:28:13;1.00;;;1.00;;
31182;SDS011;17813;0.000;0.000;2023-07-29T06:30:43;0.80;;;0.80;;
31182;SDS011;17813;0.000;0.000;2023-07-29T06:33:10;2.47;;;1.30;;
31182;SDS011;17813;0.000;0.000;2023-07-29T06:35:43;0.98;;;0.90;;
31182;SDS011;17813;0.000;0.000;2023-07-29T06:38:10;1.30;;;1.20;;
31182;SDS011;17813;0.000;0.000;2023-07-29T06:40:38;1.10;;;1.00;;
31182;SDS011;17813;0.000;0.000;2023-07-29T06:43:06;1.00;;;1.00;;
31182;SDS011;17813;0.000;0.000;2023-07-29T06:45:33;1.05;;;1.05;;
31182;SDS011;17813;0.000;0.000;2023-07-29T06:48:00;1.15;;;1.15;;
31182;SDS011;17813;0.000;0.000;2023-07-29T06:50:27;1.48;;;1.25;;
31182;SDS011;17813;0.000;0.000;2023-07-29T06:52:54;1.48;;;0.90;;
31182;SDS011;17813;0.000;0.000;2023-07-29T06:55:22;3.25;;;1.10;;
31182;SDS011;17813;0.000;0.000;2023-07-29T06:57:52;1.13;;;1.10;;
31182;SDS011;17813;0.000;0.000;2023-07-29T07:00:19;1.15;;;1.15;;
31182;SDS011;17813;0.000;0.000;2023-07-29T07:02:46;0.90;;;0.90;;
31182;SDS011;17813;0.000;0.000;2023-07-29T07:05:15;1.10;;;1.00;;
31182;SDS011;17813;0.000;0.000;2023-07-29T07:07:46;1.13;;;1.10;;
31182;SDS011;17813;0.000;0.000;2023-07-29T07:10:14;1.05;;;1.02;;
31182;SDS011;17813;0.000;0.000;2023-07-29T07:12:44;1.15;;;1.05;;
31182;SDS011;17813;0.000;0.000;2023-07-29T07:15:19;1.20;;;1.10;;
31182;SDS011;17813;0.000;0.000;2023-07-29T07:17:46;1.23;;;1.13;;
31182;SDS011;17813;0.000;0.000;2023-07-29T07:20:16;1.00;;;1.00;;
31182;SDS011;17813;0.000;0.000;2023-07-29T07:22:43;1.60;;;1.17;;
31182;SDS011;17813;0.000;0.000;2023-07-29T07:25:11;1.20;;;1.10;;
31182;SDS011;17813;0.000;0.000;2023-07-29T07:27:38;1.73;;;1.30;;
31182;SDS011;17813;0.000;0.000;2023-07-29T07:30:05;0.80;;;0.80;;
31182;SDS011;17813;0.000;0.000;2023-07-29T07:32:32;1.02;;;0.93;;
31182;SDS011;17813;0.000;0.000;2023-07-29T07:35:01;0.98;;;0.98;;
31182;SDS011;17813;0.000;0.000;2023-07-29T07:37:29;0.90;;;0.90;;
31182;SDS011;17813;0.000;0.000;2023-07-29T07:39:57;1.40;;;0.90;;
31182;SDS011;17813;0.000;0.000;2023-07-29T07:42:24;0.90;;;0.90;;
31182;SDS011;17813;0.000;0.000;2023-07-29T07:44:52;0.80;;;0.80;;
31182;SDS011;17813;0.000;0.000;2023-07-29T07:47:20;0.82;;;0.80;;
31182;SDS011;17813;0.000;0.000;2023-07-29T07:49:47;0.95;;;0.90;;
31182;SDS011;17813;0.000;0.000;2023-07-29T07:52:17;0.95;;;0.95;;
31182;SDS011;17813;0.000;0.000;2023-07-29T07:54:44;1.50;;;0.80;;
31182;SDS011;17813;0.000;0.000;2023-07-29T07:57:10;0.88;;;0.88;;
31182;SDS011;17813;0.000;0.000;2023-07-29T07:59:40;0.80;;;0.80;;
31182;SDS011;17813;0.000;0.000;2023-07-29T08:02:07;0.80;;;0.80;;
31182;SDS011;17813;0.000;0.000;2023-07-29T08:04:36;0.70;;;0.68;;
31182;SDS011;17813;0.000;0.000;2023-07-29T08:07:07;1.02;;;0.80;;
31182;SDS011;17813;0.000;0.000;2023-07-29T08:09:38;1.67;;;0.85;;
31182;SDS011;17813;0.000;0.000;2023-07-29T08:12:05;1.35;;;0.63;;
31182;SDS011;17813;0.000;0.000;2023-07-29T08:14:41;1.40;;;0.70;;
31182;SDS011;17813;0.000;0.000;2023-07-29T08:17:09;0.70;;;0.70;;
31182;SDS011;17813;0.000;0.000;2023-07-29T08:19:35;0.77;;;0.77;;
31182;SDS011;17813;0.000;0.000;2023-07-29T08:22:03;0.98;;;0.98;;
31182;SDS011;17813;0.000;0.000;2023-07-29T08:24:35;0.68;;;0.68;;
31182;SDS011;17813;0.000;0.000;2023-07-29T08:27:03;0.73;;;0.73;;
31182;SDS011;17813;0.000;0.000;2023-07-29T08:29:36;0.80;;;0.80;;
31182;SDS011;17813;0.000;0.000;2023-07-29T08:32:15;1.38;;;0.80;;
31182;SDS011;17813;0.000;0.000;2023-07-29T08:34:42;1.05;;;0.95;;
31182;SDS011;17813;0.000;0.000;2023-07-29T08:37:09;0.80;;;0.80;;
31182;SDS011;17813;0.000;0.000;2023-07-29T08:39:36;0.70;;;0.70;;
31182;SDS011;17813;0.000;0.000;2023-07-29T08:42:07;0.70;;;0.70;;
31182;SDS011;17813;0.000;0.000;2023-07-29T08:44:43;0.80;;;0.80;;
31182;SDS011;17813;0.000;0.000;2023-07-29T08:47:17;0.77;;;0.77;;
31182;SDS011;17813;0.000;0.000;2023-07-29T08:49:50;2.10;;;0.85;;
31182;SDS011;17813;0.000;0.000;2023-07-29T08:52:21;1.10;;;1.00;;
31182;SDS011;17813;0.000;0.000;2023-07-29T08:54:55;0.70;;;0.70;;
31182;SDS011;17813;0.000;0.000;2023-07-29T08:57:25;0.98;;;0.80;;
31182;SDS011;17813;0.000;0.000;2023-07-29T08:59:55;2.45;;;1.00;;
31182;SDS011;17813;0.000;0.000;2023-07-29T09:02:26;0.95;;;0.90;;
31182;SDS011;17813;0.000;0.000;2023-07-29T09:05:03;1.35;;;1.00;;
31182;SDS011;17813;0.000;0.000;2023-07-29T09:07:31;1.00;;;1.00;;
31182;SDS011;17813;0.000;0.000;2023-07-29T09:10:00;1.00;;;1.00;;
31182;SDS011;17813;0.000;0.000;2023-07-29T09:12:28;1.90;;;1.00;;
31182;SDS011;17813;0.000;0.000;2023-07-29T09:14:55;1.10;;;1.00;;
31182;SDS011;17813;0.000;0.000;2023-07-29T09:17:27;1.20;;;1.00;;
31182;SDS011;17813;0.000;0.000;2023-07-29T09:24:12;0.90;;;0.90;;
31182;SDS011;17813;0.000;0.000;2023-07-29T09:26:50;0.85;;;0.85;;
31182;SDS011;17813;0.000;0.000;2023-07-29T09:29:23;0.90;;;0.90;;
31182;SDS011;17813;0.000;0.000;2023-07-29T09:32:16;0.80;;;0.80;;
31182;SDS011;17813;0.000;0.000;2023-07-29T09:34:44;0.80;;;0.80;;
31182;SDS011;17813;0.000;0.000;2023-07-29T09:37:21;0.88;;;0.88;;
31182;SDS011;17813;0.000;0.000;2023-07-29T09:39:48;0.90;;;0.90;;
31182;SDS011;17813;0.000;0.000;2023-07-29T09:42:19;1.45;;;1.25;;
31182;SDS011;17813;0.000;0.000;2023-07-29T09:44:56;1.58;;;1.00;;
31182;SDS011;17813;0.000;0.000;2023-07-29T09:47:23;0.98;;;0.98;;
31182;SDS011;17813;0.000;0.000;2023-07-29T09:50:17;1.10;;;1.00;;
31182;SDS011;17813;0.000;0.000;2023-07-29T09:52:44;1.00;;;1.00;;
31182;SDS011;17813;0.000;0.000;2023-07-29T09:55:17;0.90;;;0.90;;
31182;SDS011;17813;0.000;0.000;2023-07-29T09:57:45;1.10;;;1.10;;
31182;SDS011;17813;0.000;0.000;2023-07-29T10:00:12;1.00;;;1.00;;
31182;SDS011;17813;0.000;0.000;2023-07-29T10:02:39;1.80;;;1.17;;
31182;SDS011;17813;0.000;0.000;2023-07-29T10:05:08;1.13;;;1.02;;
31182;SDS011;17813;0.000;0.000;2023-07-29T10:07:37;1.05;;;1.05;;
31182;SDS011;17813;0.000;0.000;2023-07-29T10:10:06;1.15;;;1.15;;
31182;SDS011;17813;0.000;0.000;2023-07-29T10:12:35;0.98;;;0.98;;
31182;SDS011;17813;0.000;0.000;2023-07-29T10:15:04;1.20;;;1.10;;
31182;SDS011;17813;0.000;0.000;2023-07-29T10:17:36;1.30;;;1.20;;
31182;SDS011;17813;0.000;0.000;2023-07-29T10:20:05;1.02;;;1.00;;
31182;SDS011;17813;0.000;0.000;2023-07-29T10:22:36;1.48;;;1.13;;
31182;SDS011;17813;0.000;0.000;2023-07-29T10:25:16;0.90;;;0.90;;
31182;SDS011;17813;0.000;0.000;2023-07-29T10:30:26;1.20;;;1.10;;
31182;SDS011;17813;0.000;0.000;2023-07-29T10:33:04;1.27;;;1.10;;
31182;SDS011;17813;0.000;0.000;2023-07-29T10:35:36;1.30;;;1.20;;
31182;SDS011;17813;0.000;0.000;2023-07-29T10:38:09;1.50;;;1.40;;
31182;SDS011;17813;0.000;0.000;2023-07-29T10:40:45;1.23;;;1.13;;
31182;SDS011;17813;0.000;0.000;2023-07-29T10:43:13;1.40;;;1.30;;
31182;SDS011;17813;0.000;0.000;2023-07-29T10:48:55;1.50;;;1.20;;
31182;SDS011;17813;0.000;0.000;2023-07-29T10:54:12;1.50;;;1.40;;
31182;SDS011;17813;0.000;0.000;2023-07-29T10:56:48;1.40;;;1.30;;
31182;SDS011;17813;0.000;0.000;2023-07-29T10:59:34;1.45;;;1.38;;
31182;SDS011;17813;0.000;0.000;2023-07-29T11:02:03;1.40;;;1.30;;
31182;SDS011;17813;0.000;0.000;2023-07-29T11:04:47;1.58;;;1.48;;
31182;SDS011;17813;0.000;0.000;2023-07-29T11:09:57;1.42;;;1.33;;
31182;SDS011;17813;0.000;0.000;2023-07-29T11:12:46;1.48;;;1.38;;
31182;SDS011;17813;0.000;0.000;2023-07-29T11:15:21;1.50;;;1.40;;
31182;SDS011;17813;0.000;0.000;2023-07-29T11:17:52;1.60;;;1.48;;
31182;SDS011;17813;0.000;0.000;2023-07-29T11:20:28;3.13;;;1.60;;
31182;SDS011;17813;0.000;0.000;2023-07-29T11:23:03;1.80;;;1.60;;
31182;SDS011;17813;0.000;0.000;2023-07-29T11:25:40;1.60;;;1.45;;
31182;SDS011;17813;0.000;0.000;2023-07-29T11:28:07;2.05;;;1.58;;
31182;SDS011;17813;0.000;0.000;2023-07-29T11:30:34;1.50;;;1.40;;
31182;SDS011;17813;0.000;0.000;2023-07-29T11:33:10;1.65;;;1.55;;
31182;SDS011;17813;0.000;0.000;2023-07-29T11:35:42;1.52;;;1.42;;
31182;SDS011;17813;0.000;0.000;2023-07-29T11:38:14;1.50;;;1.40;;
31182;SDS011;17813;0.000;0.000;2023-07-29T11:40:56;1.30;;;1.20;;
31182;SDS011;17813;0.000;0.000;2023-07-29T11:43:29;1.40;;;1.30;;
31182;SDS011;17813;0.000;0.000;2023-07-29T11:46:03;1.50;;;1.40;;
31182;SDS011;17813;0.000;0.000;2023-07-29T11:48:31;1.48;;;1.38;;
31182;SDS011;17813;0.000;0.000;2023-07-29T11:50:59;1.40;;;1.30;;
31182;SDS011;17813;0.000;0.000;2023-07-29T11:53:29;1.48;;;1.38;;
31182;SDS011;17813;0.000;0.000;2023-07-29T11:56:04;1.40;;;1.30;;
31182;SDS011;17813;0.000;0.000;2023-07-29T11:58:32;1.40;;;1.30;;
31182;SDS011;17813;0.000;0.000;2023-07-29T12:01:07;1.38;;;1.27;;
31182;SDS011;17813;0.000;0.000;2023-07-29T12:03:35;1.92;;;1.50;;
31182;SDS011;17813;0.000;0.000;2023-07-29T12:06:02;1.33;;;1.23;;
31182;SDS011;17813;0.000;0.000;2023-07-29T12:08:38;1.42;;;1.33;;
31182;SDS011;17813;0.000;0.000;2023-07-29T12:11:07;1.40;;;1.30;;
31182;SDS011;17813;0.000;0.000;2023-07-29T12:13:38;1.40;;;1.30;;
31182;SDS011;17813;0.000;0.000;2023-07-29T12:16:06;1.60;;;1.33;;
31182;SDS011;17813;0.000;0.000;2023-07-29T12:18:36;1.50;;;1.20;;
31182;SDS011;17813;0.000;0.000;2023-07-29T12:21:14;1.40;;;1.27;;
31182;SDS011;17813;0.000;0.000;2023-07-29T12:23:53;1.33;;;1.23;;
31182;SDS011;17813;0.000;0.000;2023-07-29T12:26:27;2.25;;;1.40;;
31182;SDS011;17813;0.000;0.000;2023-07-29T12:28:55;2.45;;;1.30;;
31182;SDS011;17813;0.000;0.000;2023-07-29T12:31:31;1.90;;;1.20;;
31182;SDS011;17813;0.000;0.000;2023-07-29T12:33:59;2.65;;;1.27;;
31182;SDS011;17813;0.000;0.000;2023-07-29T12:36:42;1.25;;;1.15;;
31182;SDS011;17813;0.000;0.000;2023-07-29T12:39:26;1.40;;;1.30;;
31182;SDS011;17813;0.000;0.000;2023-07-29T12:42:00;1.50;;;1.20;;
31182;SDS011;17813;0.000;0.000;2023-07-29T12:44:32;1.20;;;1.10;;
31182;SDS011;17813;0.000;0.000;2023-07-29T12:47:01;1.00;;;1.00;;
31182;SDS011;17813;0.000;0.000;2023-07-29T12:49:32;1.83;;;1.20;;
31182;SDS011;17813;0.000;0.000;2023-07-29T12:51:59;1.20;;;1.10;;
31182;SDS011;17813;0.000;0.000;2023-07-29T12:54:32;2.50;;;1.33;;
31182;SDS011;17813;0.000;0.000;2023-07-29T12:57:02;1.10;;;1.00;;
31182;SDS011;17813;0.000;0.000;2023-07-29T12:59:30;0.95;;;0.95;;
31182;SDS011;17813;0.000;0.000;2023-07-29T13:01:57;1.15;;;1.15;;
31182;SDS011;17813;0.000;0.000;2023-07-29T13:04:24;1.05;;;1.05;;
31182;SDS011;17813;0.000;0.000;2023-07-29T13:07:08;1.80;;;1.10;;
31182;SDS011;17813;0.000;0.000;2023-07-29T13:09:35;1.10;;;1.10;;
31182;SDS011;17813;0.000;0.000;2023-07-29T13:12:02;1.00;;;1.00;;
31182;SDS011;17813;0.000;0.000;2023-07-29T13:14:29;1.17;;;1.08;;
31182;SDS011;17813;0.000;0.000;2023-07-29T13:17:13;1.17;;;1.08;;
31182;SDS011;17813;0.000;0.000;2023-07-29T13:19:44;1.40;;;1.30;;
31182;SDS011;17813;0.000;0.000;2023-07-29T13:22:12;1.05;;;1.00;;
31182;SDS011;17813;0.000;0.000;2023-07-29T13:24:39;1.00;;;1.00;;
31182;SDS011;17813;0.000;0.000;2023-07-29T13:27:08;1.10;;;1.10;;
31182;SDS011;17813;0.000;0.000;2023-07-29T13:29:37;1.00;;;1.00;;
31182;SDS011;17813;0.000;0.000;2023-07-29T13:32:05;1.00;;;1.00;;
31182;SDS011;17813;0.000;0.000;2023-07-29T13:34:36;1.00;;;1.00;;
31182;SDS011;17813;0.000;0.000;2023-07-29T13:37:09;1.05;;;1.05;;
31182;SDS011;17813;0.000;0.000;2023-07-29T13:39:56;1.20;;;1.00;;
31182;SDS011;17813;0.000;0.000;2023-07-29T13:42:22;1.08;;;1.08;;
31182;SDS011;17813;0.000;0.000;2023-07-29T13:44:49;1.33;;;1.15;;
31182;SDS011;17813;0.000;0.000;2023-07-29T13:47:19;1.20;;;1.10;;
31182;SDS011;17813;0.000;0.000;2023-07-29T13:49:57;1.20;;;1.10;;
31182;SDS011;17813;0.000;0.000;2023-07-29T13:52:25;2.60;;;1.10;;
31182;SDS011;17813;0.000;0.000;2023-07-29T13:54:52;1.17;;;1.10;;
31182;SDS011;17813;0.000;0.000;2023-07-29T13:57:19;1.20;;;1.10;;
31182;SDS011;17813;0.000;0.000;2023-07-29T13:59:49;1.33;;;1.20;;
31182;SDS011;17813;0.000;0.000;2023-07-29T14:02:16;1.00;;;1.00;;
31182;SDS011;17813;0.000;0.000;2023-07-29T14:04:43;1.38;;;1.27;;
31182;SDS011;17813;0.000;0.000;2023-07-29T14:07:11;1.15;;;1.15;;
31182;SDS011;17813;0.000;0.000;2023-07-29T14:09:39;1.45;;;1.30;;
31182;SDS011;17813;0.000;0.000;2023-07-29T14:12:06;1.00;;;1.00;;
31182;SDS011;17813;0.000;0.000;2023-07-29T14:14:34;1.10;;;1.00;;
31182;SDS011;17813;0.000;0.000;2023-07-29T14:17:07;1.20;;;1.17;;
31182;SDS011;17813;0.000;0.000;2023-07-29T14:19:35;1.30;;;1.20;;
31182;SDS011;17813;0.000;0.000;2023-07-29T14:22:04;1.98;;;1.40;;
31182;SDS011;17813;0.000;0.000;2023-07-29T14:24:34;1.63;;;1.30;;
31182;SDS011;17813;0.000;0.000;2023-07-29T14:27:02;1.02;;;1.00;;
31182;SDS011;17813;0.000;0.000;2023-07-29T14:29:29;1.30;;;1.20;;
31182;SDS011;17813;0.000;0.000;2023-07-29T14:31:56;1.35;;;1.25;;
31182;SDS011;17813;0.000;0.000;2023-07-29T14:34:23;1.40;;;1.30;;
31182;SDS011;17813;0.000;0.000;2023-07-29T14:36:52;1.70;;;1.38;;
31182;SDS011;17813;0.000;0.000;2023-07-29T14:39:19;1.20;;;1.10;;
31182;SDS011;17813;0.000;0.000;2023-07-29T14:41:46;1.35;;;1.25;;
31182;SDS011;17813;0.000;0.000;2023-07-29T14:44:13;1.15;;;1.15;;
31182;SDS011;17813;0.000;0.000;2023-07-29T14:46:40;3.25;;;1.35;;
31182;SDS011;17813;0.000;0.000;2023-07-29T14:49:07;1.40;;;1.30;;
31182;SDS011;17813;0.000;0.000;2023-07-29T14:51:34;1.13;;;1.13;;
31182;SDS011;17813;0.000;0.000;2023-07-29T14:54:01;1.25;;;1.20;;
31182;SDS011;17813;0.000;0.000;2023-07-29T14:56:28;2.20;;;1.20;;
31182;SDS011;17813;0.000;0.000;2023-07-29T14:58:55;1.02;;;1.02;;
31182;SDS011;17813;0.000;0.000;2023-07-29T15:01:24;1.27;;;1.17;;
31182;SDS011;17813;0.000;0.000;2023-07-29T15:03:51;1.30;;;1.20;;
31182;SDS011;17813;0.000;0.000;2023-07-29T15:06:19;1.30;;;1.20;;
31182;SDS011;17813;0.000;0.000;2023-07-29T15:08:54;2.35;;;1.42;;
31182;SDS011;17813;0.000;0.000;2023-07-29T15:11:31;1.35;;;1.20;;
31182;SDS011;17813;0.000;0.000;2023-07-29T15:14:02;1.83;;;1.42;;
31182;SDS011;17813;0.000;0.000;2023-07-29T15:16:30;2.28;;;1.50;;
31182;SDS011;17813;0.000;0.000;2023-07-29T15:18:59;1.75;;;1.50;;
31182;SDS011;17813;0.000;0.000;2023-07-29T15:21:27;1.65;;;1.52;;
31182;SDS011;17813;0.000;0.000;2023-07-29T15:23:57;1.83;;;1.60;;
31182;SDS011;17813;0.000;0.000;2023-07-29T15:26:27;2.10;;;1.60;;
31182;SDS011;17813;0.000;0.000;2023-07-29T15:29:03;1.98;;;1.67;;
31182;SDS011;17813;0.000;0.000;2023-07-29T15:31:35;1.75;;;1.60;;
31182;SDS011;17813;0.000;0.000;2023-07-29T15:34:02;3.05;;;1.73;;
31182;SDS011;17813;0.000;0.000;2023-07-29T15:36:35;2.65;;;1.60;;
31182;SDS011;17813;0.000;0.000;2023-07-29T15:39:02;2.03;;;1.85;;
31182;SDS011;17813;0.000;0.000;2023-07-29T15:41:32;1.77;;;1.67;;
31182;SDS011;17813;0.000;0.000;2023-07-29T15:44:00;1.52;;;1.42;;